Aérodrome :
LOGIN :

S'inscrire | Disclaimer

   EN    FR    IT 

 










Légende :    VFR   VFR Marginal   IFR   IFR Intensif   IFR Très Intensif
Visi : 
Plafond : 
>= 8 km
>= 3000ft
5 à 8 km
1000 à 3000 ft
1500m à 5 km
500 à 1000 ft
800 à 1500m
200 à 500 ft
< 800m
< 200 ft
Symboles :   Orages  Brouillard  Fortes neiges  Fortes précipitations  Vent > 20 kt
SIGMETs :   Divers  Orages  Givrage  Turbulence  Onde Orograph.  Cendres Volcan.






- Altitude de l'aérodrome : 87 ft
- Code IATA : FSC


LFKF - Figari

DERNIER METAR :
  • 170100Z AUTO VRB02KT CAVOK 11/08 Q1015

METARs EXPIRÉS :
  • 170030Z AUTO 04003KT CAVOK 11/08 Q1015
  • 170000Z AUTO 08002KT CAVOK 11/08 Q1015
  • 162330Z AUTO 04002KT CAVOK 12/08 Q1015
  • 162300Z AUTO 02003KT CAVOK 12/08 Q1016
  • 162230Z AUTO 18002KT CAVOK 13/07 Q1015
  • 162200Z AUTO VRB02KT CAVOK 13/07 Q1015
  • 162130Z AUTO 04004KT 340V070 CAVOK 14/07 Q1015 NOSIG
  • 162100Z AUTO VRB02KT CAVOK 14/06 Q1015 NOSIG

TAF TAF LFKF
Valide du 16 à 15h jusqu'au 17 à 15h UTC


161400Z 1615/1715 24020KT CAVOK
BECMG 1615/1617 26010KT
BECMG 1618/1620 VRB04KT



MET'MAP, la Météo Aéronautique d'un coup d'oeil ! - Copyright ORBIFLY Décembre 2007 - Disclaimer

ORBIFLY MET'MAP TEAM :

Programmation & Développement : Alexandra Zaïnal
Sur une idée originale de : Baudouin d'Aumeries
Soutien technique & logistique : Manuel Goepfert
Assistance : Marc-Olivier Méhu




SOURCES & CREDITS :

   NOAA